sensor_id;sensor_type;location;lat;lon;timestamp;temperature;humidity
63407;SHT31;49543;45.892;10.838;2023-08-21T08:22:35;31.97;67.75
63407;SHT31;49543;45.892;10.838;2023-08-21T08:25:00;32.02;67.78
63407;SHT31;49543;45.892;10.838;2023-08-21T08:27:26;32.09;67.44
63407;SHT31;49543;45.892;10.838;2023-08-21T08:29:51;32.15;67.07
63407;SHT31;49543;45.892;10.838;2023-08-21T08:32:17;32.21;66.79
63407;SHT31;49543;45.892;10.838;2023-08-21T08:34:42;32.25;67.02
63407;SHT31;49543;45.892;10.838;2023-08-21T08:37:11;32.31;66.88
63407;SHT31;49543;45.892;10.838;2023-08-21T08:39:37;32.33;65.87
63407;SHT31;49543;45.892;10.838;2023-08-21T08:42:03;32.39;66.55
63407;SHT31;49543;45.892;10.838;2023-08-21T08:44:30;32.36;66.70
63407;SHT31;49543;45.892;10.838;2023-08-21T08:46:55;32.35;66.41
63407;SHT31;49543;45.892;10.838;2023-08-21T08:49:22;32.40;66.15
63407;SHT31;49543;45.892;10.838;2023-08-21T08:51:49;32.48;66.51
63407;SHT31;49543;45.892;10.838;2023-08-21T08:54:16;32.60;66.46
63407;SHT31;49543;45.892;10.838;2023-08-21T08:56:43;32.76;66.22
63407;SHT31;49543;45.892;10.838;2023-08-21T08:59:09;32.83;65.13
63407;SHT31;49543;45.892;10.838;2023-08-21T09:01:34;32.90;64.61
63407;SHT31;49543;45.892;10.838;2023-08-21T09:04:01;33.01;65.02
63407;SHT31;49543;45.892;10.838;2023-08-21T09:06:26;33.08;65.11
63407;SHT31;49543;45.892;10.838;2023-08-21T09:08:56;33.15;64.72
63407;SHT31;49543;45.892;10.838;2023-08-21T09:11:22;33.24;65.17
63407;SHT31;49543;45.892;10.838;2023-08-21T09:13:52;33.34;64.66
63407;SHT31;49543;45.892;10.838;2023-08-21T09:16:19;33.44;64.46
63407;SHT31;49543;45.892;10.838;2023-08-21T09:18:49;33.49;63.96
63407;SHT31;49543;45.892;10.838;2023-08-21T09:21:16;33.56;63.41
63407;SHT31;49543;45.892;10.838;2023-08-21T09:23:42;33.63;63.36
63407;SHT31;49543;45.892;10.838;2023-08-21T09:26:07;33.68;63.35
63407;SHT31;49543;45.892;10.838;2023-08-21T09:28:34;33.74;62.80
63407;SHT31;49543;45.892;10.838;2023-08-21T09:31:32;33.82;63.19
63407;SHT31;49543;45.892;10.838;2023-08-21T09:33:58;33.93;63.01
63407;SHT31;49543;45.892;10.838;2023-08-21T09:36:24;34.01;62.84
63407;SHT31;49543;45.892;10.838;2023-08-21T09:38:51;34.10;63.04
63407;SHT31;49543;45.892;10.838;2023-08-21T09:41:21;34.20;62.22
63407;SHT31;49543;45.892;10.838;2023-08-21T09:43:47;34.23;60.92
63407;SHT31;49543;45.892;10.838;2023-08-21T09:46:17;34.20;61.07
63407;SHT31;49543;45.892;10.838;2023-08-21T09:48:49;34.21;61.18
63407;SHT31;49543;45.892;10.838;2023-08-21T09:51:15;34.23;60.67
63407;SHT31;49543;45.892;10.838;2023-08-21T09:53:40;34.27;61.26
63407;SHT31;49543;45.892;10.838;2023-08-21T09:56:06;34.31;60.39
63407;SHT31;49543;45.892;10.838;2023-08-21T09:58:35;34.27;60.13
63407;SHT31;49543;45.892;10.838;2023-08-21T10:01:04;34.25;60.77
63407;SHT31;49543;45.892;10.838;2023-08-21T10:03:41;34.34;60.64
63407;SHT31;49543;45.892;10.838;2023-08-21T10:06:11;34.51;60.51
63407;SHT31;49543;45.892;10.838;2023-08-21T10:08:41;34.62;60.33
63407;SHT31;49543;45.892;10.838;2023-08-21T10:11:07;34.82;60.06
63407;SHT31;49543;45.892;10.838;2023-08-21T10:13:35;34.99;59.42
63407;SHT31;49543;45.892;10.838;2023-08-21T10:16:01;35.16;59.25
63407;SHT31;49543;45.892;10.838;2023-08-21T10:18:35;35.26;58.99
63407;SHT31;49543;45.892;10.838;2023-08-21T10:21:21;35.37;58.56
63407;SHT31;49543;45.892;10.838;2023-08-21T10:23:51;35.43;58.89
63407;SHT31;49543;45.892;10.838;2023-08-21T10:26:20;35.61;60.11
63407;SHT31;49543;45.892;10.838;2023-08-21T10:28:59;35.81;59.28
63407;SHT31;49543;45.892;10.838;2023-08-21T10:31:34;36.01;59.05
63407;SHT31;49543;45.892;10.838;2023-08-21T10:34:05;36.09;57.56
63407;SHT31;49543;45.892;10.838;2023-08-21T10:39:03;35.92;57.61
63407;SHT31;49543;45.892;10.838;2023-08-21T10:41:29;35.78;57.73
63407;SHT31;49543;45.892;10.838;2023-08-21T10:43:55;35.62;57.85
63407;SHT31;49543;45.892;10.838;2023-08-21T10:46:20;35.59;57.80
63407;SHT31;49543;45.892;10.838;2023-08-21T10:48:46;35.57;58.00
63407;SHT31;49543;45.892;10.838;2023-08-21T10:51:11;35.54;58.06
63407;SHT31;49543;45.892;10.838;2023-08-21T10:53:39;35.65;57.77
63407;SHT31;49543;45.892;10.838;2023-08-21T10:56:06;35.64;57.78
63407;SHT31;49543;45.892;10.838;2023-08-21T10:58:41;35.78;57.28
63407;SHT31;49543;45.892;10.838;2023-08-21T11:01:06;35.91;57.12
63407;SHT31;49543;45.892;10.838;2023-08-21T11:03:32;36.09;56.85
63407;SHT31;49543;45.892;10.838;2023-08-21T11:06:05;36.23;56.36
63407;SHT31;49543;45.892;10.838;2023-08-21T11:08:34;36.46;56.35
63407;SHT31;49543;45.892;10.838;2023-08-21T11:11:03;36.53;56.07
63407;SHT31;49543;45.892;10.838;2023-08-21T11:13:29;36.53;55.68
63407;SHT31;49543;45.892;10.838;2023-08-21T11:16:03;36.49;55.90
63407;SHT31;49543;45.892;10.838;2023-08-21T11:18:38;36.53;56.56
63407;SHT31;49543;45.892;10.838;2023-08-21T11:21:08;36.58;56.43
63407;SHT31;49543;45.892;10.838;2023-08-21T11:23:39;36.73;55.77
63407;SHT31;49543;45.892;10.838;2023-08-21T11:26:05;36.58;55.99
63407;SHT31;49543;45.892;10.838;2023-08-21T11:28:32;36.68;56.43
63407;SHT31;49543;45.892;10.838;2023-08-21T11:30:58;36.92;56.07
63407;SHT31;49543;45.892;10.838;2023-08-21T11:33:25;37.12;55.54
63407;SHT31;49543;45.892;10.838;2023-08-21T11:35:52;37.04;55.96
63407;SHT31;49543;45.892;10.838;2023-08-21T11:38:22;36.95;56.27
63407;SHT31;49543;45.892;10.838;2023-08-21T11:43:22;37.18;55.37
63407;SHT31;49543;45.892;10.838;2023-08-21T11:45:48;37.35;55.03
63407;SHT31;49543;45.892;10.838;2023-08-21T16:06:50;33.51;68.84
63407;SHT31;49543;45.892;10.838;2023-08-21T16:09:17;33.48;68.49
63407;SHT31;49543;45.892;10.838;2023-08-21T16:11:45;33.38;69.54
63407;SHT31;49543;45.892;10.838;2023-08-21T16:14:10;33.32;70.15
63407;SHT31;49543;45.892;10.838;2023-08-21T16:16:38;33.24;69.98
63407;SHT31;49543;45.892;10.838;2023-08-21T16:19:04;33.21;69.62
63407;SHT31;49543;45.892;10.838;2023-08-21T16:21:30;33.17;69.40
63407;SHT31;49543;45.892;10.838;2023-08-21T16:23:55;33.21;69.48
63407;SHT31;49543;45.892;10.838;2023-08-21T16:26:20;33.15;69.43
63407;SHT31;49543;45.892;10.838;2023-08-21T16:28:46;33.12;69.51
63407;SHT31;49543;45.892;10.838;2023-08-21T16:31:15;33.10;69.20
63407;SHT31;49543;45.892;10.838;2023-08-21T16:33:42;33.04;67.77
63407;SHT31;49543;45.892;10.838;2023-08-21T16:36:08;33.00;66.69
63407;SHT31;49543;45.892;10.838;2023-08-21T16:38:33;32.92;68.03
63407;SHT31;49543;45.892;10.838;2023-08-21T16:40:59;32.92;68.17
63407;SHT31;49543;45.892;10.838;2023-08-21T16:43:25;32.94;67.59
63407;SHT31;49543;45.892;10.838;2023-08-21T16:45:50;32.91;67.88
63407;SHT31;49543;45.892;10.838;2023-08-21T16:48:17;32.88;67.89
63407;SHT31;49543;45.892;10.838;2023-08-21T16:50:43;32.86;68.30
63407;SHT31;49543;45.892;10.838;2023-08-21T16:53:08;32.84;68.47
63407;SHT31;49543;45.892;10.838;2023-08-21T16:55:34;32.87;67.15
63407;SHT31;49543;45.892;10.838;2023-08-21T16:57:59;32.91;67.26
63407;SHT31;49543;45.892;10.838;2023-08-21T17:00:27;32.96;67.06
63407;SHT31;49543;45.892;10.838;2023-08-21T17:02:52;33.01;67.95
63407;SHT31;49543;45.892;10.838;2023-08-21T17:05:18;33.04;68.41
63407;SHT31;49543;45.892;10.838;2023-08-21T17:07:43;32.97;68.94
63407;SHT31;49543;45.892;10.838;2023-08-21T17:10:10;32.87;69.09
63407;SHT31;49543;45.892;10.838;2023-08-21T17:12:36;32.77;68.99
63407;SHT31;49543;45.892;10.838;2023-08-21T17:15:03;32.76;67.11
63407;SHT31;49543;45.892;10.838;2023-08-21T17:17:30;32.76;67.23
63407;SHT31;49543;45.892;10.838;2023-08-21T17:19:55;32.76;66.72
63407;SHT31;49543;45.892;10.838;2023-08-21T17:22:21;32.81;66.89
63407;SHT31;49543;45.892;10.838;2023-08-21T17:24:47;32.81;67.21
63407;SHT31;49543;45.892;10.838;2023-08-21T17:27:13;32.80;67.50
63407;SHT31;49543;45.892;10.838;2023-08-21T17:29:38;32.74;67.48
63407;SHT31;49543;45.892;10.838;2023-08-21T17:32:16;32.67;67.62
63407;SHT31;49543;45.892;10.838;2023-08-21T17:34:42;32.66;67.32
63407;SHT31;49543;45.892;10.838;2023-08-21T17:37:07;32.63;66.84
63407;SHT31;49543;45.892;10.838;2023-08-21T17:39:34;32.64;67.27
63407;SHT31;49543;45.892;10.838;2023-08-21T17:41:59;32.64;67.32
63407;SHT31;49543;45.892;10.838;2023-08-21T17:44:25;32.67;67.41
63407;SHT31;49543;45.892;10.838;2023-08-21T17:46:51;32.67;67.16
63407;SHT31;49543;45.892;10.838;2023-08-21T17:49:16;32.70;67.55
63407;SHT31;49543;45.892;10.838;2023-08-21T17:51:42;32.64;67.92
63407;SHT31;49543;45.892;10.838;2023-08-21T17:54:07;32.60;68.21
63407;SHT31;49543;45.892;10.838;2023-08-21T17:56:32;32.57;68.57
63407;SHT31;49543;45.892;10.838;2023-08-21T17:58:58;32.55;68.46
63407;SHT31;49543;45.892;10.838;2023-08-21T18:01:23;32.52;68.38
63407;SHT31;49543;45.892;10.838;2023-08-21T18:03:49;32.52;68.36
63407;SHT31;49543;45.892;10.838;2023-08-21T18:06:15;32.52;67.91
63407;SHT31;49543;45.892;10.838;2023-08-21T18:08:40;32.51;67.39
63407;SHT31;49543;45.892;10.838;2023-08-21T18:11:06;32.51;68.05
63407;SHT31;49543;45.892;10.838;2023-08-21T18:13:33;32.48;68.20
63407;SHT31;49543;45.892;10.838;2023-08-21T18:15:59;32.44;68.54
63407;SHT31;49543;45.892;10.838;2023-08-21T18:18:25;32.43;68.80
63407;SHT31;49543;45.892;10.838;2023-08-21T18:20:54;32.42;69.00
63407;SHT31;49543;45.892;10.838;2023-08-21T18:23:25;32.36;69.05
63407;SHT31;49543;45.892;10.838;2023-08-21T18:25:51;32.33;69.12
63407;SHT31;49543;45.892;10.838;2023-08-21T18:28:16;32.29;68.85
63407;SHT31;49543;45.892;10.838;2023-08-21T18:30:49;32.31;68.98
63407;SHT31;49543;45.892;10.838;2023-08-21T18:33:15;32.26;69.22
63407;SHT31;49543;45.892;10.838;2023-08-21T18:35:40;32.25;69.12
63407;SHT31;49543;45.892;10.838;2023-08-21T18:38:06;32.19;68.77
63407;SHT31;49543;45.892;10.838;2023-08-21T18:40:32;32.18;69.59
63407;SHT31;49543;45.892;10.838;2023-08-21T18:42:58;32.07;69.97
63407;SHT31;49543;45.892;10.838;2023-08-21T18:45:23;31.98;70.20
63407;SHT31;49543;45.892;10.838;2023-08-21T18:47:48;31.91;70.24
63407;SHT31;49543;45.892;10.838;2023-08-21T18:50:18;31.87;70.24
63407;SHT31;49543;45.892;10.838;2023-08-21T18:52:46;31.85;70.12
63407;SHT31;49543;45.892;10.838;2023-08-21T18:55:11;31.82;70.60
63407;SHT31;49543;45.892;10.838;2023-08-21T18:57:37;31.77;70.60
63407;SHT31;49543;45.892;10.838;2023-08-21T19:00:03;31.76;70.28
63407;SHT31;49543;45.892;10.838;2023-08-21T19:02:34;31.73;70.35
63407;SHT31;49543;45.892;10.838;2023-08-21T19:05:00;31.70;70.58
63407;SHT31;49543;45.892;10.838;2023-08-21T19:07:25;31.69;70.84
63407;SHT31;49543;45.892;10.838;2023-08-21T19:09:51;31.63;71.15
63407;SHT31;49543;45.892;10.838;2023-08-21T19:12:16;31.63;71.49
63407;SHT31;49543;45.892;10.838;2023-08-21T19:14:42;31.59;71.27
63407;SHT31;49543;45.892;10.838;2023-08-21T19:17:07;31.56;71.51
63407;SHT31;49543;45.892;10.838;2023-08-21T19:19:33;31.50;71.59
63407;SHT31;49543;45.892;10.838;2023-08-21T19:21:58;31.49;71.75
63407;SHT31;49543;45.892;10.838;2023-08-21T19:24:23;31.43;71.62
63407;SHT31;49543;45.892;10.838;2023-08-21T19:26:49;31.40;71.73
63407;SHT31;49543;45.892;10.838;2023-08-21T19:29:14;31.37;71.79
63407;SHT31;49543;45.892;10.838;2023-08-21T19:31:40;31.36;71.81
63407;SHT31;49543;45.892;10.838;2023-08-21T19:34:05;31.33;71.89
63407;SHT31;49543;45.892;10.838;2023-08-21T19:36:31;31.30;71.99
63407;SHT31;49543;45.892;10.838;2023-08-21T19:38:56;31.27;72.10
63407;SHT31;49543;45.892;10.838;2023-08-21T19:41:22;31.25;72.08
63407;SHT31;49543;45.892;10.838;2023-08-21T19:43:47;31.19;71.96
63407;SHT31;49543;45.892;10.838;2023-08-21T19:46:13;31.23;71.76
63407;SHT31;49543;45.892;10.838;2023-08-21T19:48:39;31.23;71.94
63407;SHT31;49543;45.892;10.838;2023-08-21T19:51:04;31.22;72.16
63407;SHT31;49543;45.892;10.838;2023-08-21T19:53:30;31.22;72.24
63407;SHT31;49543;45.892;10.838;2023-08-21T19:55:55;31.21;72.23
63407;SHT31;49543;45.892;10.838;2023-08-21T19:58:21;31.19;72.22
63407;SHT31;49543;45.892;10.838;2023-08-21T20:00:47;31.16;72.39
63407;SHT31;49543;45.892;10.838;2023-08-21T20:03:12;31.12;72.54
63407;SHT31;49543;45.892;10.838;2023-08-21T20:05:38;31.11;72.44
63407;SHT31;49543;45.892;10.838;2023-08-21T20:08:04;31.06;72.30
63407;SHT31;49543;45.892;10.838;2023-08-21T20:10:29;31.05;72.38
63407;SHT31;49543;45.892;10.838;2023-08-21T20:12:55;31.02;72.39
63407;SHT31;49543;45.892;10.838;2023-08-21T20:15:20;30.99;72.70
63407;SHT31;49543;45.892;10.838;2023-08-21T20:17:46;31.02;72.63
63407;SHT31;49543;45.892;10.838;2023-08-21T20:20:12;31.02;72.42
63407;SHT31;49543;45.892;10.838;2023-08-21T20:22:41;31.02;72.57
63407;SHT31;49543;45.892;10.838;2023-08-21T20:25:07;31.02;72.85
63407;SHT31;49543;45.892;10.838;2023-08-21T20:27:33;31.02;73.13
63407;SHT31;49543;45.892;10.838;2023-08-21T20:29:59;30.94;73.13
63407;SHT31;49543;45.892;10.838;2023-08-21T20:32:25;30.91;73.23
63407;SHT31;49543;45.892;10.838;2023-08-21T20:34:50;30.86;73.04
63407;SHT31;49543;45.892;10.838;2023-08-21T20:37:18;30.86;73.02
63407;SHT31;49543;45.892;10.838;2023-08-21T20:39:43;30.85;73.10
63407;SHT31;49543;45.892;10.838;2023-08-21T20:42:09;30.81;73.02
63407;SHT31;49543;45.892;10.838;2023-08-21T20:44:35;30.79;73.01
63407;SHT31;49543;45.892;10.838;2023-08-21T20:47:02;30.75;72.99
63407;SHT31;49543;45.892;10.838;2023-08-21T20:49:27;30.72;73.14
63407;SHT31;49543;45.892;10.838;2023-08-21T20:51:53;30.69;73.16
63407;SHT31;49543;45.892;10.838;2023-08-21T20:54:18;30.68;73.09
63407;SHT31;49543;45.892;10.838;2023-08-21T20:56:44;30.64;73.05
63407;SHT31;49543;45.892;10.838;2023-08-21T20:59:09;30.64;72.94
63407;SHT31;49543;45.892;10.838;2023-08-21T21:01:35;30.63;73.04
63407;SHT31;49543;45.892;10.838;2023-08-21T21:04:01;30.58;73.10
63407;SHT31;49543;45.892;10.838;2023-08-21T21:06:26;30.57;73.02
63407;SHT31;49543;45.892;10.838;2023-08-21T21:08:54;30.51;72.92
63407;SHT31;49543;45.892;10.838;2023-08-21T21:11:20;30.48;73.30
63407;SHT31;49543;45.892;10.838;2023-08-21T21:13:45;30.44;73.52
63407;SHT31;49543;45.892;10.838;2023-08-21T21:16:11;30.40;73.61
63407;SHT31;49543;45.892;10.838;2023-08-21T21:18:36;30.31;73.92
63407;SHT31;49543;45.892;10.838;2023-08-21T21:21:02;30.27;74.21
63407;SHT31;49543;45.892;10.838;2023-08-21T21:23:27;30.23;74.20
63407;SHT31;49543;45.892;10.838;2023-08-21T21:25:52;30.20;74.04
63407;SHT31;49543;45.892;10.838;2023-08-21T21:28:18;30.19;74.14
63407;SHT31;49543;45.892;10.838;2023-08-21T21:30:43;30.20;74.10
63407;SHT31;49543;45.892;10.838;2023-08-21T21:33:09;30.22;74.20
63407;SHT31;49543;45.892;10.838;2023-08-21T21:35:34;30.23;74.08
63407;SHT31;49543;45.892;10.838;2023-08-21T21:38:00;30.24;73.99
